Time;durP1;ratioP1;P1;durP2;ratioP2;P2;SDS_P1;SDS_P2;PMS_P1;PMS_P2;Temp;Humidity;BMP_temperature;BMP_pressure;BME280_temperature;BME280_humidity;BME280_pressure;Samples;Min_cycle;Max_cycle;Signal;HPM_P1;HPM_P2
2023/03/25 00:01:31;;;;;;;1.57;0.93;;;9.50;99.90;;;;;;5055769;28;20194;-73
2023/03/25 00:03:59;;;;;;;2.13;0.70;;;9.40;99.90;;;;;;5052038;28;20843;-73
2023/03/25 00:06:26;;;;;;;2.60;0.90;;;9.40;99.90;;;;;;5037258;28;20403;-73
2023/03/25 00:08:52;;;;;;;5.03;1.07;;;9.40;99.90;;;;;;5036471;28;20402;-71
2023/03/25 00:11:18;;;;;;;1.00;0.80;;;9.40;99.90;;;;;;5035188;28;20946;-72
2023/03/25 00:13:43;;;;;;;1.50;0.80;;;9.40;99.90;;;;;;5036069;28;20442;-73
2023/03/25 00:16:09;;;;;;;3.33;1.03;;;9.50;99.90;;;;;;5035232;28;20177;-72
2023/03/25 00:18:36;;;;;;;1.10;0.63;;;9.60;99.90;;;;;;5035707;28;20633;-72
2023/03/25 00:21:09;;;;;;;3.80;1.00;;;9.60;99.90;;;;;;5054679;28;20175;-73
2023/03/25 00:23:35;;;;;;;1.80;0.90;;;9.70;99.90;;;;;;5059155;28;20428;-73
2023/03/25 00:26:01;;;;;;;0.90;0.70;;;9.80;99.90;;;;;;5053518;28;20410;-70
2023/03/25 00:28:29;;;;;;;1.30;1.10;;;9.80;99.90;;;;;;5053090;28;20397;-70
2023/03/25 00:30:59;;;;;;;1.53;0.80;;;9.80;99.90;;;;;;5053190;28;20463;-71
2023/03/25 00:33:25;;;;;;;3.57;1.70;;;9.80;99.90;;;;;;5053342;28;20428;-71
2023/03/25 00:35:53;;;;;;;3.07;1.00;;;9.80;99.90;;;;;;5051686;28;20475;-71
2023/03/25 00:38:19;;;;;;;2.73;0.87;;;9.90;99.90;;;;;;5052919;28;20249;-72
2023/03/25 00:40:47;;;;;;;2.13;1.00;;;9.90;99.90;;;;;;5052957;28;20447;-70
2023/03/25 00:43:13;;;;;;;6.00;0.87;;;9.90;99.90;;;;;;5053922;28;20457;-71
2023/03/25 00:45:39;;;;;;;1.43;0.83;;;9.90;99.90;;;;;;5054812;28;20933;-71
2023/03/25 00:48:04;;;;;;;2.10;0.80;;;9.90;99.90;;;;;;5052563;28;20228;-71
2023/03/25 00:50:30;;;;;;;1.77;0.90;;;9.90;99.90;;;;;;5055713;28;20159;-72
2023/03/25 00:52:55;;;;;;;7.03;1.20;;;9.90;99.90;;;;;;5055336;28;20183;-71
2023/03/25 00:55:21;;;;;;;2.90;1.00;;;9.90;99.90;;;;;;5052852;28;20531;-71
2023/03/25 00:57:47;;;;;;;3.93;0.93;;;9.90;99.90;;;;;;5053690;28;20238;-73
2023/03/25 01:00:15;;;;;;;2.03;1.10;;;9.90;99.90;;;;;;5056226;28;20198;-70
2023/03/25 01:02:41;;;;;;;1.77;0.87;;;9.90;99.90;;;;;;5052629;28;20257;-71
2023/03/25 01:05:09;;;;;;;5.50;1.13;;;9.90;99.90;;;;;;5038238;28;20407;-71
2023/03/25 01:07:35;;;;;;;5.40;1.33;;;9.90;99.90;;;;;;5034914;28;20481;-73
2023/03/25 01:10:02;;;;;;;1.60;0.80;;;9.90;99.90;;;;;;5034027;28;20406;-73
2023/03/25 01:12:27;;;;;;;3.33;0.80;;;9.90;99.90;;;;;;5036485;28;20514;-72
2023/03/25 01:14:53;;;;;;;5.00;0.90;;;9.90;99.90;;;;;;5032805;28;20470;-71
2023/03/25 01:17:19;;;;;;;2.10;1.03;;;9.80;99.90;;;;;;5032396;28;20172;-72
2023/03/25 01:19:45;;;;;;;1.40;0.90;;;9.80;99.90;;;;;;5032694;28;20417;-71
2023/03/25 01:22:11;;;;;;;1.03;0.80;;;9.80;99.90;;;;;;5032479;28;20215;-71
2023/03/25 01:24:37;;;;;;;2.50;0.80;;;9.70;99.90;;;;;;5032732;28;20178;-73
2023/03/25 01:27:03;;;;;;;2.03;1.73;;;9.70;99.90;;;;;;5048024;28;20193;-72
2023/03/25 01:29:29;;;;;;;2.90;0.90;;;9.70;99.90;;;;;;5070517;28;20925;-73
2023/03/25 01:31:55;;;;;;;7.70;1.00;;;9.80;99.90;;;;;;5075917;28;20412;-73
2023/03/25 01:34:20;;;;;;;3.53;0.90;;;9.80;99.90;;;;;;5073203;28;20409;-72
2023/03/25 01:36:46;;;;;;;2.50;0.93;;;9.80;99.90;;;;;;5072566;28;20409;-73
2023/03/25 01:39:17;;;;;;;0.80;0.60;;;9.80;99.90;;;;;;5071938;28;20174;-71
2023/03/25 01:41:44;;;;;;;1.00;0.80;;;9.90;99.90;;;;;;5073026;28;20756;-72
2023/03/25 01:44:13;;;;;;;1.87;0.80;;;9.90;99.90;;;;;;5071983;28;20424;-71
2023/03/25 01:46:38;;;;;;;3.13;0.70;;;9.90;99.90;;;;;;5072057;28;20466;-72
2023/03/25 01:49:07;;;;;;;1.57;0.80;;;9.90;99.90;;;;;;5072161;28;20408;-73
2023/03/25 01:51:39;;;;;;;1.00;0.60;;;9.90;99.90;;;;;;5073167;28;20178;-71
2023/03/25 01:54:05;;;;;;;1.13;0.70;;;9.80;99.90;;;;;;5074020;28;20432;-72
2023/03/25 01:56:37;;;;;;;1.07;0.77;;;9.90;99.90;;;;;;5071159;28;20442;-71
2023/03/25 01:59:05;;;;;;;0.90;0.70;;;9.80;99.90;;;;;;5072074;28;20415;-71
2023/03/25 02:01:31;;;;;;;1.43;0.67;;;9.70;99.90;;;;;;5072197;28;20459;-71
2023/03/25 02:04:01;;;;;;;1.53;0.70;;;9.60;99.90;;;;;;5067680;28;20428;-70
2023/03/25 02:06:39;;;;;;;1.37;0.90;;;9.50;99.90;;;;;;5050814;28;20413;-70
2023/03/25 02:09:05;;;;;;;1.10;0.80;;;9.30;99.90;;;;;;5053561;28;20567;-70
2023/03/25 02:11:32;;;;;;;1.80;1.00;;;9.10;99.90;;;;;;5056291;28;20848;-71
2023/03/25 02:14:02;;;;;;;1.77;0.70;;;9.10;99.90;;;;;;5055951;28;20226;-71
2023/03/25 02:16:45;;;;;;;4.30;0.80;;;9.00;99.90;;;;;;5056155;28;20409;-71
2023/03/25 02:19:32;;;;;;;3.93;0.80;;;9.00;99.90;;;;;;5054628;28;20428;-71
2023/03/25 02:22:10;;;;;;;4.70;1.27;;;9.00;99.90;;;;;;5055731;28;20445;-71
2023/03/25 02:25:09;;;;;;;4.20;1.00;;;9.00;99.90;;;;;;5055918;28;20397;-72
2023/03/25 02:27:47;;;;;;;0.90;0.70;;;9.10;99.90;;;;;;5055517;28;20915;-70
2023/03/25 02:30:24;;;;;;;1.73;0.80;;;9.10;99.90;;;;;;5055601;28;20397;-71
2023/03/25 02:33:28;;;;;;;2.30;0.87;;;9.00;99.90;;;;;;5055727;28;20820;-71
2023/03/25 02:36:23;;;;;;;1.53;0.90;;;9.00;99.90;;;;;;5055611;28;20942;-71
2023/03/25 02:38:54;;;;;;;1.07;0.83;;;8.90;99.90;;;;;;5064770;28;20415;-71
2023/03/25 02:41:28;;;;;;;1.97;0.90;;;8.90;99.90;;;;;;5057135;28;20404;-71
2023/03/25 02:44:01;;;;;;;1.40;0.87;;;8.90;99.90;;;;;;5055386;28;20542;-71
2023/03/25 02:46:29;;;;;;;1.00;0.80;;;8.80;99.90;;;;;;5055399;28;20405;-71
2023/03/25 02:49:01;;;;;;;1.20;0.70;;;8.80;99.90;;;;;;5054785;28;20488;-70
2023/03/25 02:51:39;;;;;;;2.87;1.27;;;8.70;99.90;;;;;;5055041;28;20417;-70
2023/03/25 02:54:11;;;;;;;0.93;0.70;;;8.70;99.90;;;;;;5055012;28;20425;-71
2023/03/25 02:56:39;;;;;;;3.37;0.90;;;8.80;99.90;;;;;;5055178;28;20978;-70
2023/03/25 02:59:06;;;;;;;1.63;1.33;;;8.90;99.90;;;;;;5054969;28;20882;-71
2023/03/25 03:01:33;;;;;;;4.63;1.90;;;9.00;99.90;;;;;;5053741;28;20556;-71
2023/03/25 03:03:59;;;;;;;1.53;0.87;;;9.00;99.90;;;;;;5050029;28;20426;-70
2023/03/25 03:06:25;;;;;;;2.93;1.33;;;9.00;99.90;;;;;;5037487;28;20402;-70
2023/03/25 03:09:01;;;;;;;4.00;0.90;;;9.10;99.90;;;;;;5053382;28;20417;-71
2023/03/25 03:11:39;;;;;;;1.40;1.30;;;9.10;99.90;;;;;;5054981;28;20770;-70
2023/03/25 03:14:23;;;;;;;1.70;0.83;;;9.20;99.90;;;;;;5054526;28;20489;-71
2023/03/25 03:16:59;;;;;;;1.10;1.00;;;9.30;99.90;;;;;;5054774;28;20757;-73
2023/03/25 03:19:36;;;;;;;1.43;0.83;;;9.30;99.90;;;;;;5054843;28;20409;-71
2023/03/25 03:22:07;;;;;;;2.60;1.30;;;9.30;99.90;;;;;;5054778;28;20548;-71
2023/03/25 03:24:37;;;;;;;2.70;1.07;;;9.30;99.90;;;;;;5054643;28;20401;-72
2023/03/25 03:27:13;;;;;;;2.20;0.90;;;9.30;99.90;;;;;;5054297;28;20432;-71
2023/03/25 03:30:11;;;;;;;1.63;0.83;;;9.40;99.90;;;;;;5054445;28;20428;-71
2023/03/25 03:32:59;;;;;;;3.47;1.47;;;9.40;99.90;;;;;;5053173;28;20516;-71
2023/03/25 03:36:09;;;;;;;1.83;1.00;;;9.30;99.90;;;;;;5053061;28;20420;-71
2023/03/25 03:38:47;;;;;;;8.97;1.70;;;9.30;99.90;;;;;;5015527;28;20437;-71
2023/03/25 03:41:17;;;;;;;1.90;1.20;;;9.20;99.90;;;;;;5032042;28;20814;-71
2023/03/25 03:43:59;;;;;;;1.73;1.10;;;9.20;99.90;;;;;;5050206;28;20506;-71
2023/03/25 03:46:37;;;;;;;1.20;1.00;;;9.10;99.90;;;;;;5059501;28;20928;-71
2023/03/25 03:49:08;;;;;;;1.73;1.10;;;9.10;99.90;;;;;;5053982;28;20455;-72
2023/03/25 03:51:43;;;;;;;3.47;1.23;;;9.00;99.90;;;;;;5054230;28;20480;-71
2023/03/25 03:54:38;;;;;;;2.50;0.90;;;8.90;99.90;;;;;;5054114;28;20425;-72
2023/03/25 03:57:10;;;;;;;2.30;1.20;;;9.00;99.90;;;;;;5052691;28;20413;-71
2023/03/25 03:59:45;;;;;;;3.77;0.93;;;9.00;99.90;;;;;;5053943;28;20402;-71
2023/03/25 04:02:25;;;;;;;2.40;1.00;;;9.00;99.90;;;;;;5053888;28;20452;-71
2023/03/25 04:04:52;;;;;;;3.23;1.10;;;9.00;99.90;;;;;;5041547;28;20767;-71
2023/03/25 04:07:22;;;;;;;9.73;1.40;;;9.10;99.90;;;;;;5033638;28;20490;-70
2023/03/25 04:10:02;;;;;;;1.30;0.80;;;9.10;99.90;;;;;;5033874;28;20390;-71
2023/03/25 04:12:37;;;;;;;8.23;1.90;;;9.10;99.90;;;;;;5033654;28;20465;-71
2023/03/25 04:15:05;;;;;;;1.53;1.00;;;9.10;99.90;;;;;;5033555;28;20938;-71
2023/03/25 04:17:34;;;;;;;1.70;0.90;;;9.10;99.90;;;;;;5032077;28;21114;-70
2023/03/25 04:20:00;;;;;;;1.77;1.20;;;9.10;99.90;;;;;;5033555;28;20955;-71
2023/03/25 04:22:26;;;;;;;3.50;1.27;;;9.20;99.90;;;;;;5033496;28;20508;-71
2023/03/25 04:24:54;;;;;;;4.30;0.97;;;9.20;99.90;;;;;;5033472;28;20398;-71
2023/03/25 04:27:23;;;;;;;2.93;1.00;;;9.30;99.90;;;;;;5033244;28;20543;-72
2023/03/25 04:29:50;;;;;;;2.33;0.90;;;9.30;99.90;;;;;;5032016;28;20524;-71
2023/03/25 04:32:16;;;;;;;1.57;1.20;;;9.30;99.90;;;;;;5032770;28;20933;-71
2023/03/25 04:34:42;;;;;;;2.70;0.80;;;9.30;99.90;;;;;;5033319;28;20464;-71
2023/03/25 04:37:07;;;;;;;2.07;1.20;;;9.30;99.90;;;;;;5031519;28;20182;-71
2023/03/25 04:39:33;;;;;;;1.87;0.97;;;9.30;99.90;;;;;;5031778;28;20198;-71
2023/03/25 04:42:02;;;;;;;3.10;1.23;;;9.30;99.90;;;;;;5032963;28;20198;-71
2023/03/25 04:44:32;;;;;;;3.63;1.20;;;9.40;99.90;;;;;;5032976;28;20191;-71
2023/03/25 04:47:00;;;;;;;3.90;1.60;;;9.30;99.90;;;;;;5032797;28;20843;-71
2023/03/25 04:49:26;;;;;;;3.83;1.20;;;9.30;99.90;;;;;;5036910;28;20410;-71
2023/03/25 04:51:54;;;;;;;4.83;1.43;;;9.40;99.90;;;;;;5064172;28;20599;-71
2023/03/25 04:54:20;;;;;;;1.93;0.90;;;9.40;99.90;;;;;;5052810;28;20167;-71
2023/03/25 04:56:48;;;;;;;2.47;1.20;;;9.40;99.90;;;;;;5051507;28;20406;-70
2023/03/25 04:59:14;;;;;;;3.67;1.20;;;9.40;99.90;;;;;;5052425;28;20412;-71
2023/03/25 05:01:41;;;;;;;6.20;1.17;;;9.40;99.90;;;;;;5051338;28;20583;-71
2023/03/25 05:04:11;;;;;;;1.70;1.07;;;9.40;99.90;;;;;;5046706;28;20418;-71
2023/03/25 05:06:38;;;;;;;1.77;0.80;;;9.50;99.90;;;;;;5032819;28;20867;-71
2023/03/25 05:09:05;;;;;;;3.20;0.87;;;9.50;99.90;;;;;;5032351;28;20485;-70
2023/03/25 05:11:33;;;;;;;4.00;1.03;;;9.50;99.90;;;;;;5032622;28;20501;-72
2023/03/25 05:13:58;;;;;;;1.73;0.93;;;9.50;99.90;;;;;;5032482;28;20825;-71
2023/03/25 05:16:24;;;;;;;3.10;1.20;;;9.60;99.90;;;;;;5032660;28;20495;-70
2023/03/25 05:18:49;;;;;;;5.80;1.07;;;9.60;99.90;;;;;;5032406;28;20644;-71
2023/03/25 05:21:16;;;;;;;3.00;0.87;;;9.60;99.90;;;;;;5032529;28;20633;-71
2023/03/25 05:23:42;;;;;;;3.27;1.10;;;9.60;99.90;;;;;;5032311;28;20180;-71
2023/03/25 05:26:08;;;;;;;6.60;1.23;;;9.60;99.90;;;;;;5032374;28;20805;-71
2023/03/25 05:28:34;;;;;;;1.30;0.80;;;9.60;99.90;;;;;;5032169;28;20193;-71
2023/03/25 05:31:07;;;;;;;3.03;1.47;;;9.50;99.90;;;;;;5032329;28;20771;-71
2023/03/25 05:33:33;;;;;;;1.20;0.83;;;9.60;99.90;;;;;;5032229;28;20423;-70
2023/03/25 05:36:00;;;;;;;1.50;1.00;;;9.60;99.90;;;;;;5032422;28;20493;-71
2023/03/25 05:38:25;;;;;;;2.23;0.80;;;9.60;99.90;;;;;;5031795;28;20409;-71
2023/03/25 05:40:51;;;;;;;1.27;1.00;;;9.50;99.90;;;;;;5032541;28;20410;-71
2023/03/25 05:43:21;;;;;;;2.13;0.90;;;9.50;99.90;;;;;;5031178;28;20195;-71
2023/03/25 05:45:47;;;;;;;5.77;1.23;;;9.50;99.90;;;;;;5030989;28;20577;-70
2023/03/25 05:48:12;;;;;;;3.63;1.10;;;9.50;99.90;;;;;;5031822;28;20497;-71
2023/03/25 05:50:41;;;;;;;2.33;1.30;;;9.50;99.90;;;;;;5032277;28;20505;-71
2023/03/25 05:53:11;;;;;;;3.67;2.50;;;9.60;99.90;;;;;;5031870;28;20187;-70
2023/03/25 05:55:37;;;;;;;6.03;1.40;;;9.60;99.90;;;;;;5030768;28;20414;-70
2023/03/25 05:58:03;;;;;;;3.67;1.07;;;9.70;99.90;;;;;;5030520;28;20422;-71
2023/03/25 06:00:29;;;;;;;2.50;1.00;;;9.70;99.90;;;;;;5031992;28;20167;-71
2023/03/25 06:02:55;;;;;;;2.40;1.20;;;9.80;99.90;;;;;;5062994;28;20479;-71
2023/03/25 06:05:24;;;;;;;9.40;1.50;;;9.70;99.90;;;;;;5035680;28;20481;-71
2023/03/25 06:07:51;;;;;;;1.73;1.10;;;9.80;99.90;;;;;;5031528;28;20406;-71
2023/03/25 06:10:17;;;;;;;8.73;1.70;;;9.80;99.90;;;;;;5032116;28;20406;-71
2023/03/25 06:12:47;;;;;;;5.00;1.73;;;9.70;99.90;;;;;;5031825;28;20426;-71
2023/03/25 06:15:20;;;;;;;1.37;0.87;;;9.80;99.90;;;;;;5032069;28;20426;-72
2023/03/25 06:17:46;;;;;;;5.10;1.37;;;9.80;99.90;;;;;;5031899;28;20497;-71
2023/03/25 06:20:15;;;;;;;9.13;1.80;;;9.80;99.90;;;;;;5032065;28;20528;-71
2023/03/25 06:22:43;;;;;;;12.27;1.97;;;9.70;99.90;;;;;;5031859;28;20684;-71
2023/03/25 06:25:18;;;;;;;1.43;0.80;;;9.70;99.90;;;;;;5032023;28;20486;-72
2023/03/25 06:27:45;;;;;;;2.20;1.47;;;9.70;99.90;;;;;;5031631;28;20398;-71
2023/03/25 06:30:20;;;;;;;5.00;1.07;;;9.80;99.90;;;;;;5032034;28;20969;-71
2023/03/25 06:32:51;;;;;;;1.33;1.10;;;9.80;99.90;;;;;;5031639;28;20521;-71
2023/03/25 06:35:18;;;;;;;4.30;1.73;;;9.90;99.90;;;;;;5031889;28;20930;-71
2023/03/25 06:37:46;;;;;;;1.63;1.20;;;10.00;99.90;;;;;;5031297;28;20413;-71
2023/03/25 06:40:13;;;;;;;3.83;1.30;;;10.00;99.90;;;;;;5030525;28;20414;-72
2023/03/25 06:42:38;;;;;;;3.97;0.90;;;10.10;99.90;;;;;;5031450;28;20454;-71
2023/03/25 06:45:06;;;;;;;5.73;1.00;;;10.20;99.90;;;;;;5031714;28;20493;-71
2023/03/25 06:47:32;;;;;;;2.67;1.57;;;10.30;99.90;;;;;;5031606;28;20711;-71
2023/03/25 06:49:58;;;;;;;5.60;2.03;;;10.30;99.90;;;;;;5031701;28;20402;-72
2023/03/25 06:52:23;;;;;;;3.33;1.30;;;10.10;99.90;;;;;;5031514;28;21009;-72
2023/03/25 06:54:49;;;;;;;3.27;1.30;;;9.80;99.90;;;;;;5033751;28;20172;-71
2023/03/25 06:57:15;;;;;;;0.97;0.70;;;9.50;99.90;;;;;;5034896;28;20221;-71
2023/03/25 06:59:40;;;;;;;1.97;1.57;;;9.30;99.90;;;;;;5034998;28;20595;-71
2023/03/25 07:02:06;;;;;;;4.30;1.07;;;9.30;99.90;;;;;;5035095;28;20481;-71
2023/03/25 07:04:32;;;;;;;2.77;0.90;;;9.30;99.90;;;;;;5034836;28;20246;-71
2023/03/25 07:06:57;;;;;;;4.37;1.00;;;9.40;99.90;;;;;;5034709;28;20520;-71
2023/03/25 07:09:23;;;;;;;4.97;1.20;;;9.40;99.90;;;;;;5034989;28;20164;-72
2023/03/25 07:11:48;;;;;;;1.73;1.37;;;9.50;99.90;;;;;;5034879;28;20250;-71
2023/03/25 07:14:14;;;;;;;4.27;1.57;;;9.60;99.90;;;;;;5064554;28;20190;-71
2023/03/25 07:16:40;;;;;;;4.67;1.27;;;9.60;99.90;;;;;;5054615;28;20577;-71
2023/03/25 07:19:05;;;;;;;1.60;1.00;;;9.70;99.90;;;;;;5054240;28;20167;-71
2023/03/25 07:21:31;;;;;;;3.73;1.33;;;9.80;99.90;;;;;;5054491;28;20671;-71
2023/03/25 07:23:56;;;;;;;4.60;1.43;;;10.00;99.90;;;;;;5054534;28;20190;-72
2023/03/25 07:26:22;;;;;;;3.53;0.80;;;10.20;99.90;;;;;;5054257;28;20202;-71
2023/03/25 07:28:47;;;;;;;7.93;1.67;;;10.70;99.90;;;;;;5054061;28;20167;-71
2023/03/25 07:31:15;;;;;;;8.43;1.50;;;11.10;99.90;;;;;;5054229;28;20194;-71
2023/03/25 07:33:41;;;;;;;1.30;0.90;;;11.20;99.90;;;;;;5054288;28;20186;-72
2023/03/25 07:36:09;;;;;;;3.23;1.97;;;11.00;99.90;;;;;;5054201;28;20458;-71
2023/03/25 07:38:35;;;;;;;3.43;2.47;;;10.80;99.90;;;;;;5052681;28;20466;-71
2023/03/25 07:41:06;;;;;;;4.87;1.60;;;10.70;99.90;;;;;;5054064;28;20484;-71
2023/03/25 07:43:31;;;;;;;9.03;1.27;;;10.60;99.90;;;;;;5053802;28;20460;-71
2023/03/25 07:45:57;;;;;;;3.57;1.20;;;10.70;99.90;;;;;;5053977;28;20406;-71
2023/03/25 07:48:23;;;;;;;8.10;1.10;;;10.60;99.90;;;;;;5053752;28;20167;-72
2023/03/25 07:50:51;;;;;;;1.57;1.20;;;10.60;99.90;;;;;;5053993;28;20175;-71
2023/03/25 07:53:17;;;;;;;3.37;1.50;;;10.60;99.90;;;;;;5053902;28;20187;-71
2023/03/25 07:55:44;;;;;;;4.47;1.37;;;10.60;99.90;;;;;;5053812;28;20504;-71
2023/03/25 07:58:10;;;;;;;1.53;1.40;;;10.70;99.90;;;;;;5053502;28;20179;-71
2023/03/25 08:00:35;;;;;;;4.17;1.47;;;10.70;99.90;;;;;;5054884;28;20903;-72
2023/03/25 08:03:02;;;;;;;1.13;0.80;;;10.80;99.90;;;;;;5055523;28;20464;-71
2023/03/25 08:05:28;;;;;;;4.03;1.20;;;10.70;99.90;;;;;;5035363;28;20174;-72
2023/03/25 08:07:54;;;;;;;1.73;1.03;;;10.60;99.90;;;;;;5035589;28;20761;-71
2023/03/25 08:10:20;;;;;;;3.93;1.40;;;10.70;99.90;;;;;;5033772;28;20164;-71
2023/03/25 08:12:46;;;;;;;2.37;1.10;;;10.80;99.90;;;;;;5033519;28;20843;-70
2023/03/25 08:15:12;;;;;;;9.93;1.10;;;11.10;99.90;;;;;;5034582;28;20433;-71
2023/03/25 08:17:38;;;;;;;2.07;0.90;;;11.40;99.90;;;;;;5034850;28;20183;-73
2023/03/25 08:20:05;;;;;;;3.07;1.60;;;11.60;99.90;;;;;;5044469;28;20933;-71
2023/03/25 08:22:32;;;;;;;4.67;1.60;;;11.80;99.90;;;;;;5064327;28;20464;-71
2023/03/25 08:24:58;;;;;;;5.63;1.30;;;12.20;99.90;;;;;;5073219;28;20416;-71
2023/03/25 08:27:23;;;;;;;3.80;2.60;;;13.00;99.90;;;;;;5073064;28;20405;-71
2023/03/25 08:29:53;;;;;;;1.53;0.80;;;13.90;99.90;;;;;;5076087;28;20492;-73
2023/03/25 08:32:23;;;;;;;2.40;1.90;;;14.00;99.90;;;;;;5073295;28;20197;-71
2023/03/25 08:34:49;;;;;;;11.50;2.10;;;13.90;99.90;;;;;;5073744;28;20408;-71
2023/03/25 08:37:15;;;;;;;3.20;1.37;;;14.70;99.90;;;;;;5075203;28;20404;-73
2023/03/25 08:39:43;;;;;;;4.87;1.27;;;15.50;99.90;;;;;;5074563;28;20905;-71
2023/03/25 08:42:11;;;;;;;4.60;1.57;;;15.20;99.90;;;;;;5072846;28;20299;-71
2023/03/25 08:44:37;;;;;;;5.70;1.47;;;14.90;99.90;;;;;;5072886;28;20772;-71
2023/03/25 08:47:04;;;;;;;4.50;1.20;;;14.50;99.90;;;;;;5072601;28;21135;-71
2023/03/25 08:49:30;;;;;;;3.43;1.17;;;14.10;99.90;;;;;;5073067;28;20918;-72
2023/03/25 08:51:57;;;;;;;4.27;1.13;;;14.00;99.90;;;;;;5073200;28;20444;-72
2023/03/25 08:54:23;;;;;;;4.43;1.17;;;13.70;99.90;;;;;;5072818;28;20420;-71
2023/03/25 08:56:49;;;;;;;5.00;1.60;;;14.00;99.90;;;;;;5072287;28;20448;-70
2023/03/25 08:59:15;;;;;;;5.60;1.53;;;14.10;99.90;;;;;;5071624;28;20459;-71
2023/03/25 09:01:42;;;;;;;2.20;1.40;;;13.80;99.90;;;;;;5072517;28;20193;-70
2023/03/25 09:04:07;;;;;;;6.30;1.47;;;13.10;99.90;;;;;;5067673;28;20190;-71
2023/03/25 09:06:33;;;;;;;11.07;2.20;;;12.90;99.90;;;;;;5053758;28;20398;-71
2023/03/25 09:08:59;;;;;;;3.23;1.50;;;12.70;99.90;;;;;;5052529;28;20163;-73
2023/03/25 09:11:25;;;;;;;7.37;4.20;;;12.60;99.90;;;;;;5055682;28;20179;-72
2023/03/25 09:13:50;;;;;;;10.40;2.50;;;12.70;99.90;;;;;;5054309;28;20191;-71
2023/03/25 09:16:16;;;;;;;9.80;1.40;;;12.80;99.90;;;;;;5053284;28;20400;-73
2023/03/25 09:18:42;;;;;;;5.37;1.97;;;13.00;99.90;;;;;;5052509;28;20170;-71
2023/03/25 09:21:07;;;;;;;7.00;1.60;;;12.90;99.90;;;;;;5052408;28;20171;-70
2023/03/25 09:23:33;;;;;;;5.80;1.57;;;12.90;99.90;;;;;;5052045;28;20244;-72
2023/03/25 09:26:02;;;;;;;5.83;1.63;;;12.90;99.90;;;;;;5052165;28;20171;-72
2023/03/25 09:28:28;;;;;;;5.37;1.60;;;13.00;99.90;;;;;;5051905;28;20659;-71
2023/03/25 09:30:55;;;;;;;5.67;1.63;;;12.80;99.90;;;;;;5053326;28;20402;-71
2023/03/25 09:33:20;;;;;;;5.37;1.13;;;12.70;99.90;;;;;;5063147;28;20434;-71
2023/03/25 09:35:47;;;;;;;7.13;1.60;;;12.80;99.90;;;;;;5054903;28;20401;-73
2023/03/25 09:38:12;;;;;;;3.83;1.40;;;12.80;99.90;;;;;;5056483;28;20185;-73
2023/03/25 09:40:43;;;;;;;4.57;1.43;;;12.80;99.90;;;;;;5056511;28;20413;-72
2023/03/25 09:43:44;;;;;;;3.20;1.07;;;12.50;99.90;;;;;;5054650;28;20213;-73
2023/03/25 09:46:10;;;;;;;1.30;0.70;;;12.70;99.90;;;;;;5052074;28;20405;-72
2023/03/25 09:48:45;;;;;;;3.90;1.17;;;15.10;99.90;;;;;;5051550;28;20428;-73
2023/03/25 09:51:28;;;;;;;4.23;1.80;;;18.10;95.40;;;;;;5051907;28;20170;-74
2023/03/25 09:54:15;;;;;;;4.90;1.40;;;19.20;80.70;;;;;;5050992;28;20438;-70
2023/03/25 09:56:42;;;;;;;4.60;1.57;;;18.90;71.60;;;;;;5051901;28;20406;-70
2023/03/25 09:59:16;;;;;;;11.37;2.67;;;17.50;72.10;;;;;;5051550;28;20406;-70
2023/03/25 10:02:17;;;;;;;4.47;1.27;;;16.80;76.40;;;;;;5051689;28;20441;-69
2023/03/25 10:05:19;;;;;;;2.80;1.73;;;16.20;79.40;;;;;;5040765;28;20406;-70
2023/03/25 10:07:57;;;;;;;6.90;1.73;;;15.90;82.50;;;;;;5023039;28;20856;-70
2023/03/25 10:10:27;;;;;;;5.30;1.67;;;15.50;84.30;;;;;;5030630;28;20410;-70
2023/03/25 10:13:14;;;;;;;3.63;1.27;;;15.00;86.40;;;;;;5031735;28;20426;-70
2023/03/25 10:15:58;;;;;;;3.77;1.60;;;14.60;91.30;;;;;;5031780;28;20447;-70
2023/03/25 10:18:48;;;;;;;3.30;2.20;;;14.80;92.60;;;;;;5031510;28;20472;-69
2023/03/25 10:21:16;;;;;;;11.20;2.57;;;14.90;94.50;;;;;;5031813;28;20417;-70
2023/03/25 10:23:50;;;;;;;2.73;1.47;;;15.50;92.30;;;;;;5031487;28;20552;-70
2023/03/25 10:26:29;;;;;;;7.40;1.80;;;16.20;93.60;;;;;;5031753;28;20410;-73
2023/03/25 10:29:05;;;;;;;5.73;1.60;;;18.30;90.80;;;;;;5032154;28;20413;-73
2023/03/25 10:31:35;;;;;;;9.83;2.40;;;21.60;76.70;;;;;;5035581;28;20402;-73
2023/03/25 10:34:06;;;;;;;9.93;2.00;;;24.00;59.10;;;;;;5035391;28;20433;-73
2023/03/25 10:36:48;;;;;;;4.87;1.90;;;24.80;53.40;;;;;;5035407;28;20457;-73
2023/03/25 10:39:19;;;;;;;3.50;1.50;;;25.40;51.00;;;;;;5035322;28;20402;-74
2023/03/25 10:41:50;;;;;;;7.47;1.60;;;25.90;48.10;;;;;;5035312;28;20568;-75
2023/03/25 10:44:17;;;;;;;3.37;1.70;;;25.70;46.50;;;;;;5065408;28;20400;-72
2023/03/25 10:46:54;;;;;;;8.17;2.17;;;25.80;46.90;;;;;;5056262;28;20409;-72
2023/03/25 10:49:24;;;;;;;2.83;1.63;;;24.70;45.60;;;;;;5055618;28;20401;-71
2023/03/25 10:51:56;;;;;;;4.50;2.27;;;23.60;46.70;;;;;;5055427;28;20393;-72
2023/03/25 10:54:25;;;;;;;4.57;1.70;;;22.00;47.50;;;;;;5055310;28;20405;-72
2023/03/25 10:56:54;;;;;;;2.90;1.13;;;19.90;48.80;;;;;;5053552;28;20420;-73
2023/03/25 10:59:19;;;;;;;6.27;1.60;;;18.50;52.30;;;;;;5055052;28;20459;-73
2023/03/25 11:01:45;;;;;;;9.40;1.23;;;18.40;55.10;;;;;;5054107;28;20444;-73
2023/03/25 11:04:16;;;;;;;5.67;1.23;;;20.30;55.30;;;;;;5048556;28;20287;-72
2023/03/25 11:06:49;;;;;;;5.63;1.53;;;22.90;52.70;;;;;;5034077;28;20460;-72
2023/03/25 11:09:29;;;;;;;14.97;1.97;;;24.60;49.80;;;;;;5034826;28;20754;-73
2023/03/25 11:11:59;;;;;;;3.10;1.40;;;24.90;48.10;;;;;;5034619;28;20408;-74
2023/03/25 11:14:27;;;;;;;4.73;1.50;;;23.80;46.70;;;;;;5034675;28;20437;-74
2023/03/25 11:16:58;;;;;;;7.50;1.70;;;22.70;47.40;;;;;;5034283;28;20421;-72
2023/03/25 11:19:31;;;;;;;5.63;1.37;;;22.30;49.40;;;;;;5034840;28;20442;-73
2023/03/25 11:22:01;;;;;;;3.30;1.27;;;22.60;49.80;;;;;;5033243;28;20450;-72
2023/03/25 11:24:33;;;;;;;4.20;1.27;;;21.90;49.80;;;;;;5034580;28;20486;-72
2023/03/25 11:27:00;;;;;;;3.73;1.77;;;20.70;50.00;;;;;;5034295;28;20761;-72
2023/03/25 11:29:26;;;;;;;7.60;1.93;;;19.60;51.20;;;;;;5034563;28;20402;-72
2023/03/25 11:32:30;;;;;;;4.47;1.50;;;18.40;52.60;;;;;;5034463;28;20413;-72
2023/03/25 11:34:59;;;;;;;6.33;1.70;;;17.30;55.20;;;;;;5033156;28;20946;-72
2023/03/25 11:37:30;;;;;;;6.00;1.87;;;16.70;58.30;;;;;;5032813;28;20418;-74
2023/03/25 11:40:05;;;;;;;4.60;1.60;;;15.80;59.80;;;;;;5033592;28;20409;-72
2023/03/25 11:42:36;;;;;;;4.83;1.90;;;15.40;63.80;;;;;;5033895;28;20449;-74
2023/03/25 11:45:02;;;;;;;4.53;1.57;;;15.10;67.80;;;;;;5034270;28;20403;-74
2023/03/25 11:47:37;;;;;;;5.57;1.47;;;14.80;71.70;;;;;;5033898;28;20403;-74
2023/03/25 11:50:04;;;;;;;5.23;1.30;;;14.20;74.00;;;;;;5045636;28;20449;-73
2023/03/25 11:52:45;;;;;;;3.90;1.30;;;14.30;80.50;;;;;;5065048;28;20432;-73
2023/03/25 11:55:19;;;;;;;7.17;2.07;;;14.40;83.30;;;;;;5073964;28;20408;-74
2023/03/25 11:57:46;;;;;;;9.20;1.30;;;14.50;85.90;;;;;;5072707;28;20415;-72
2023/03/25 12:00:25;;;;;;;8.50;2.00;;;14.30;84.60;;;;;;5073932;28;20519;-72
2023/03/25 12:03:21;;;;;;;8.70;1.50;;;14.30;89.10;;;;;;5073674;28;20464;-72
2023/03/25 12:06:03;;;;;;;5.00;1.47;;;14.30;91.40;;;;;;5040375;28;21000;-72
2023/03/25 12:08:49;;;;;;;10.77;2.20;;;14.40;90.40;;;;;;5033350;28;20760;-72
2023/03/25 12:11:40;;;;;;;5.13;1.40;;;14.50;87.40;;;;;;5033800;28;20884;-73
2023/03/25 12:14:36;;;;;;;6.80;1.83;;;14.60;87.70;;;;;;5033368;28;20492;-73
2023/03/25 12:17:02;;;;;;;14.93;2.00;;;14.50;85.60;;;;;;5033394;28;20395;-72
2023/03/25 12:19:44;;;;;;;12.10;1.87;;;15.00;85.40;;;;;;5033203;28;20485;-72
2023/03/25 12:22:41;;;;;;;8.47;1.83;;;16.10;81.10;;;;;;5032895;28;20203;-74
2023/03/25 12:25:38;;;;;;;9.20;1.80;;;16.40;72.00;;;;;;5033396;28;20378;-72
2023/03/25 12:28:16;;;;;;;2.70;1.37;;;18.80;70.90;;;;;;5032666;28;20410;-73
2023/03/25 12:30:55;;;;;;;2.63;1.40;;;20.40;62.30;;;;;;5033499;28;20406;-73
2023/03/25 12:33:55;;;;;;;2.60;1.40;;;20.50;56.60;;;;;;5033113;28;20445;-72
2023/03/25 12:36:39;;;;;;;6.30;1.13;;;20.00;55.20;;;;;;5033348;28;20767;-72
2023/03/25 12:39:23;;;;;;;4.40;1.87;;;21.80;57.20;;;;;;5032979;28;20390;-72
2023/03/25 12:42:00;;;;;;;6.20;1.53;;;24.10;48.60;;;;;;5033223;28;20497;-72
2023/03/25 12:44:49;;;;;;;6.23;1.73;;;22.60;46.10;;;;;;5033279;28;20406;-71
2023/03/25 12:47:24;;;;;;;9.40;2.13;;;22.50;47.70;;;;;;5048116;28;20417;-74
2023/03/25 12:50:27;;;;;;;4.30;1.50;;;22.80;47.70;;;;;;5032881;28;20489;-71
2023/03/25 12:53:16;;;;;;;16.40;1.87;;;22.00;47.30;;;;;;5032392;28;20426;-72
2023/03/25 12:55:42;;;;;;;4.33;1.73;;;21.20;47.50;;;;;;5032897;28;20402;-72
2023/03/25 12:58:36;;;;;;;4.93;1.53;;;20.10;46.50;;;;;;5032359;28;20419;-71
2023/03/25 13:01:27;;;;;;;3.70;1.53;;;20.70;50.00;;;;;;5056444;28;20261;-74
2023/03/25 13:04:13;;;;;;;2.63;1.40;;;21.40;48.50;;;;;;5031984;28;20531;-72
2023/03/25 13:06:57;;;;;;;9.00;1.83;;;20.90;48.40;;;;;;5032718;28;20406;-74
2023/03/25 13:09:57;;;;;;;2.97;1.47;;;20.20;50.40;;;;;;5032573;28;20406;-74
2023/03/25 13:12:40;;;;;;;4.70;1.40;;;18.50;50.60;;;;;;5032541;28;20890;-74
2023/03/25 13:15:26;;;;;;;2.30;1.70;;;17.60;52.80;;;;;;5046861;28;20433;-74